sensor_id;sensor_type;location;lat;lon;timestamp;temperature;humidity
41262;DHT22;29629;52.532;13.352;2023-07-24T00:01:59;20.30;99.90
41262;DHT22;29629;52.532;13.352;2023-07-24T00:04:26;20.30;99.90
41262;DHT22;29629;52.532;13.352;2023-07-24T00:06:53;20.30;99.90
41262;DHT22;29629;52.532;13.352;2023-07-24T00:09:21;20.30;99.90
41262;DHT22;29629;52.532;13.352;2023-07-24T00:11:48;20.30;99.90
41262;DHT22;29629;52.532;13.352;2023-07-24T00:14:16;20.20;99.90
41262;DHT22;29629;52.532;13.352;2023-07-24T00:16:43;20.10;99.90
41262;DHT22;29629;52.532;13.352;2023-07-24T00:19:10;20.10;99.90
41262;DHT22;29629;52.532;13.352;2023-07-24T00:21:37;20.10;99.90
41262;DHT22;29629;52.532;13.352;2023-07-24T00:24:04;20.10;99.90
41262;DHT22;29629;52.532;13.352;2023-07-24T00:26:49;20.20;99.90
41262;DHT22;29629;52.532;13.352;2023-07-24T00:29:16;20.20;99.90
41262;DHT22;29629;52.532;13.352;2023-07-24T00:31:43;20.20;99.90
41262;DHT22;29629;52.532;13.352;2023-07-24T00:34:10;20.20;99.90
41262;DHT22;29629;52.532;13.352;2023-07-24T00:36:37;20.10;99.90
41262;DHT22;29629;52.532;13.352;2023-07-24T00:39:04;20.10;99.90
41262;DHT22;29629;52.532;13.352;2023-07-24T00:41:31;20.10;99.90
41262;DHT22;29629;52.532;13.352;2023-07-24T00:44:00;20.10;99.90
41262;DHT22;29629;52.532;13.352;2023-07-24T00:46:27;20.10;99.90
41262;DHT22;29629;52.532;13.352;2023-07-24T00:48:58;20.10;99.90
41262;DHT22;29629;52.532;13.352;2023-07-24T00:51:26;20.10;99.90
41262;DHT22;29629;52.532;13.352;2023-07-24T00:53:54;20.10;99.90
41262;DHT22;29629;52.532;13.352;2023-07-24T00:56:22;20.10;99.90
41262;DHT22;29629;52.532;13.352;2023-07-24T00:58:49;20.10;99.90
41262;DHT22;29629;52.532;13.352;2023-07-24T01:01:17;20.10;99.90
41262;DHT22;29629;52.532;13.352;2023-07-24T01:03:44;20.10;99.90
41262;DHT22;29629;52.532;13.352;2023-07-24T01:06:11;20.00;99.90
41262;DHT22;29629;52.532;13.352;2023-07-24T01:08:38;20.00;99.90
41262;DHT22;29629;52.532;13.352;2023-07-24T01:11:14;20.00;99.90
41262;DHT22;29629;52.532;13.352;2023-07-24T01:13:47;19.90;99.90
41262;DHT22;29629;52.532;13.352;2023-07-24T01:16:19;19.90;99.90
41262;DHT22;29629;52.532;13.352;2023-07-24T01:18:50;19.90;99.90
41262;DHT22;29629;52.532;13.352;2023-07-24T01:21:20;19.90;99.90
41262;DHT22;29629;52.532;13.352;2023-07-24T01:23:55;19.90;99.90
41262;DHT22;29629;52.532;13.352;2023-07-24T01:26:26;19.90;99.90
41262;DHT22;29629;52.532;13.352;2023-07-24T01:28:53;20.00;99.90
41262;DHT22;29629;52.532;13.352;2023-07-24T01:31:20;19.90;99.90
41262;DHT22;29629;52.532;13.352;2023-07-24T01:33:47;19.90;99.90
41262;DHT22;29629;52.532;13.352;2023-07-24T01:36:15;19.90;99.90
41262;DHT22;29629;52.532;13.352;2023-07-24T01:38:42;19.90;99.90
41262;DHT22;29629;52.532;13.352;2023-07-24T01:41:10;19.90;99.90
41262;DHT22;29629;52.532;13.352;2023-07-24T01:43:38;19.90;99.90
41262;DHT22;29629;52.532;13.352;2023-07-24T01:46:05;20.00;99.90
41262;DHT22;29629;52.532;13.352;2023-07-24T01:48:32;19.90;99.90
41262;DHT22;29629;52.532;13.352;2023-07-24T01:50:59;20.00;99.90
41262;DHT22;29629;52.532;13.352;2023-07-24T01:53:26;20.00;99.90
41262;DHT22;29629;52.532;13.352;2023-07-24T01:55:53;20.00;99.90
41262;DHT22;29629;52.532;13.352;2023-07-24T01:58:19;20.00;99.90
41262;DHT22;29629;52.532;13.352;2023-07-24T02:00:48;20.00;99.90
41262;DHT22;29629;52.532;13.352;2023-07-24T02:03:14;20.00;99.90
41262;DHT22;29629;52.532;13.352;2023-07-24T02:05:41;20.00;99.90
41262;DHT22;29629;52.532;13.352;2023-07-24T02:08:08;19.90;99.90
41262;DHT22;29629;52.532;13.352;2023-07-24T02:10:37;20.00;99.90
41262;DHT22;29629;52.532;13.352;2023-07-24T02:13:04;19.90;99.90
41262;DHT22;29629;52.532;13.352;2023-07-24T02:15:33;20.00;99.90
41262;DHT22;29629;52.532;13.352;2023-07-24T02:18:01;20.00;99.90
41262;DHT22;29629;52.532;13.352;2023-07-24T02:20:28;20.00;99.90
41262;DHT22;29629;52.532;13.352;2023-07-24T02:22:55;20.00;99.90
41262;DHT22;29629;52.532;13.352;2023-07-24T02:25:22;20.00;99.90
41262;DHT22;29629;52.532;13.352;2023-07-24T02:27:49;20.00;99.90
41262;DHT22;29629;52.532;13.352;2023-07-24T02:30:16;20.00;99.90
41262;DHT22;29629;52.532;13.352;2023-07-24T02:32:43;20.00;99.90
41262;DHT22;29629;52.532;13.352;2023-07-24T02:35:11;20.00;99.90
41262;DHT22;29629;52.532;13.352;2023-07-24T02:37:38;20.00;99.90
41262;DHT22;29629;52.532;13.352;2023-07-24T02:40:06;20.00;99.90
41262;DHT22;29629;52.532;13.352;2023-07-24T02:42:33;19.90;99.90
41262;DHT22;29629;52.532;13.352;2023-07-24T02:45:00;19.90;99.90
41262;DHT22;29629;52.532;13.352;2023-07-24T02:47:27;19.90;99.90
41262;DHT22;29629;52.532;13.352;2023-07-24T02:49:54;19.90;99.90
41262;DHT22;29629;52.532;13.352;2023-07-24T02:52:22;19.90;99.90
41262;DHT22;29629;52.532;13.352;2023-07-24T02:54:49;19.90;99.90
41262;DHT22;29629;52.532;13.352;2023-07-24T02:57:16;19.90;99.90
41262;DHT22;29629;52.532;13.352;2023-07-24T02:59:43;19.90;99.90
41262;DHT22;29629;52.532;13.352;2023-07-24T03:02:10;19.90;99.90
41262;DHT22;29629;52.532;13.352;2023-07-24T03:04:37;19.90;99.90
41262;DHT22;29629;52.532;13.352;2023-07-24T03:07:04;19.90;99.90
41262;DHT22;29629;52.532;13.352;2023-07-24T03:09:32;19.90;99.90
41262;DHT22;29629;52.532;13.352;2023-07-24T03:11:59;19.90;99.90
41262;DHT22;29629;52.532;13.352;2023-07-24T03:14:26;19.90;99.90
41262;DHT22;29629;52.532;13.352;2023-07-24T03:16:53;19.90;99.90
41262;DHT22;29629;52.532;13.352;2023-07-24T03:19:20;19.80;99.90
41262;DHT22;29629;52.532;13.352;2023-07-24T03:21:47;19.80;99.90
41262;DHT22;29629;52.532;13.352;2023-07-24T03:24:14;19.80;99.90
41262;DHT22;29629;52.532;13.352;2023-07-24T03:26:43;19.80;99.90
41262;DHT22;29629;52.532;13.352;2023-07-24T03:29:09;19.80;99.90
41262;DHT22;29629;52.532;13.352;2023-07-24T03:31:36;19.80;99.90
41262;DHT22;29629;52.532;13.352;2023-07-24T03:34:03;19.80;99.90
41262;DHT22;29629;52.532;13.352;2023-07-24T03:36:30;19.80;99.90
41262;DHT22;29629;52.532;13.352;2023-07-24T03:38:57;19.80;99.90
41262;DHT22;29629;52.532;13.352;2023-07-24T03:41:24;19.80;99.90
41262;DHT22;29629;52.532;13.352;2023-07-24T03:43:53;19.70;99.90
41262;DHT22;29629;52.532;13.352;2023-07-24T03:46:20;19.70;99.90
41262;DHT22;29629;52.532;13.352;2023-07-24T03:48:47;19.80;99.90
41262;DHT22;29629;52.532;13.352;2023-07-24T03:51:15;19.80;99.90
41262;DHT22;29629;52.532;13.352;2023-07-24T03:53:42;19.70;99.90
41262;DHT22;29629;52.532;13.352;2023-07-24T03:56:09;19.70;99.90
41262;DHT22;29629;52.532;13.352;2023-07-24T03:58:37;19.80;99.90
41262;DHT22;29629;52.532;13.352;2023-07-24T04:01:06;19.60;99.90
41262;DHT22;29629;52.532;13.352;2023-07-24T04:03:33;19.60;99.90
41262;DHT22;29629;52.532;13.352;2023-07-24T04:06:01;19.60;99.90
41262;DHT22;29629;52.532;13.352;2023-07-24T04:08:28;19.60;99.90
41262;DHT22;29629;52.532;13.352;2023-07-24T04:10:55;19.60;99.90
41262;DHT22;29629;52.532;13.352;2023-07-24T04:13:22;19.60;99.90
41262;DHT22;29629;52.532;13.352;2023-07-24T04:15:49;19.60;99.90
41262;DHT22;29629;52.532;13.352;2023-07-24T04:18:17;19.60;99.90
41262;DHT22;29629;52.532;13.352;2023-07-24T04:20:44;19.60;99.90
41262;DHT22;29629;52.532;13.352;2023-07-24T04:23:11;19.60;99.90
41262;DHT22;29629;52.532;13.352;2023-07-24T04:25:38;19.70;99.90
41262;DHT22;29629;52.532;13.352;2023-07-24T04:28:04;19.80;99.90
41262;DHT22;29629;52.532;13.352;2023-07-24T04:30:32;19.80;99.90
41262;DHT22;29629;52.532;13.352;2023-07-24T04:32:59;19.80;99.90
41262;DHT22;29629;52.532;13.352;2023-07-24T04:35:28;19.80;99.90
41262;DHT22;29629;52.532;13.352;2023-07-24T04:37:55;19.80;99.90
41262;DHT22;29629;52.532;13.352;2023-07-24T04:40:23;19.80;99.90
41262;DHT22;29629;52.532;13.352;2023-07-24T04:42:49;19.80;99.90
41262;DHT22;29629;52.532;13.352;2023-07-24T04:45:16;19.80;99.90
41262;DHT22;29629;52.532;13.352;2023-07-24T04:47:43;20.00;99.90
41262;DHT22;29629;52.532;13.352;2023-07-24T04:50:10;19.90;99.90
41262;DHT22;29629;52.532;13.352;2023-07-24T04:52:38;20.00;99.90
41262;DHT22;29629;52.532;13.352;2023-07-24T04:55:06;20.10;99.90
41262;DHT22;29629;52.532;13.352;2023-07-24T04:57:33;20.20;99.90
41262;DHT22;29629;52.532;13.352;2023-07-24T05:00:00;20.30;99.90
41262;DHT22;29629;52.532;13.352;2023-07-24T05:02:27;20.40;99.90
41262;DHT22;29629;52.532;13.352;2023-07-24T05:04:54;20.40;99.90
41262;DHT22;29629;52.532;13.352;2023-07-24T05:07:21;20.40;99.90
41262;DHT22;29629;52.532;13.352;2023-07-24T05:09:49;20.50;99.90
41262;DHT22;29629;52.532;13.352;2023-07-24T05:12:16;20.50;99.90
41262;DHT22;29629;52.532;13.352;2023-07-24T05:14:43;20.40;99.90
41262;DHT22;29629;52.532;13.352;2023-07-24T05:17:10;20.50;99.90
41262;DHT22;29629;52.532;13.352;2023-07-24T05:19:36;20.60;99.90
41262;DHT22;29629;52.532;13.352;2023-07-24T05:22:04;20.90;99.90
41262;DHT22;29629;52.532;13.352;2023-07-24T05:24:31;21.20;99.90
41262;DHT22;29629;52.532;13.352;2023-07-24T05:26:59;21.40;99.90
41262;DHT22;29629;52.532;13.352;2023-07-24T05:29:26;21.60;99.90
41262;DHT22;29629;52.532;13.352;2023-07-24T05:31:53;21.60;99.90
41262;DHT22;29629;52.532;13.352;2023-07-24T05:34:20;21.50;99.90
41262;DHT22;29629;52.532;13.352;2023-07-24T05:36:47;21.40;99.90
41262;DHT22;29629;52.532;13.352;2023-07-24T05:39:14;21.50;99.90
41262;DHT22;29629;52.532;13.352;2023-07-24T05:41:41;21.50;99.90
41262;DHT22;29629;52.532;13.352;2023-07-24T05:44:09;21.50;99.90
41262;DHT22;29629;52.532;13.352;2023-07-24T05:46:36;21.40;99.90
41262;DHT22;29629;52.532;13.352;2023-07-24T05:49:03;21.50;99.90
41262;DHT22;29629;52.532;13.352;2023-07-24T05:51:30;21.50;99.90
41262;DHT22;29629;52.532;13.352;2023-07-24T05:53:56;21.40;99.90
41262;DHT22;29629;52.532;13.352;2023-07-24T05:56:23;21.30;99.90
41262;DHT22;29629;52.532;13.352;2023-07-24T05:58:50;21.30;99.90
41262;DHT22;29629;52.532;13.352;2023-07-24T06:01:18;21.40;99.90
41262;DHT22;29629;52.532;13.352;2023-07-24T06:03:45;21.40;99.90
41262;DHT22;29629;52.532;13.352;2023-07-24T06:06:12;21.30;99.90
41262;DHT22;29629;52.532;13.352;2023-07-24T06:08:40;21.50;99.90
41262;DHT22;29629;52.532;13.352;2023-07-24T06:11:06;21.90;99.90
41262;DHT22;29629;52.532;13.352;2023-07-24T06:13:33;22.00;99.90
41262;DHT22;29629;52.532;13.352;2023-07-24T06:16:00;22.00;99.90
41262;DHT22;29629;52.532;13.352;2023-07-24T06:18:28;22.10;99.90
41262;DHT22;29629;52.532;13.352;2023-07-24T06:20:55;22.10;99.90
41262;DHT22;29629;52.532;13.352;2023-07-24T06:23:22;22.40;99.90
41262;DHT22;29629;52.532;13.352;2023-07-24T06:25:49;22.40;99.90
41262;DHT22;29629;52.532;13.352;2023-07-24T06:28:17;22.50;99.90
41262;DHT22;29629;52.532;13.352;2023-07-24T06:30:44;22.60;99.90
41262;DHT22;29629;52.532;13.352;2023-07-24T06:33:11;22.60;99.90
41262;DHT22;29629;52.532;13.352;2023-07-24T06:35:39;22.80;99.90
41262;DHT22;29629;52.532;13.352;2023-07-24T06:38:06;23.00;99.90
41262;DHT22;29629;52.532;13.352;2023-07-24T06:40:34;22.90;99.90
41262;DHT22;29629;52.532;13.352;2023-07-24T06:43:01;23.10;99.90
41262;DHT22;29629;52.532;13.352;2023-07-24T06:45:28;23.30;99.90
41262;DHT22;29629;52.532;13.352;2023-07-24T06:47:55;23.40;99.90
41262;DHT22;29629;52.532;13.352;2023-07-24T06:50:21;23.50;99.90
41262;DHT22;29629;52.532;13.352;2023-07-24T06:52:50;23.70;99.90
41262;DHT22;29629;52.532;13.352;2023-07-24T06:55:19;23.70;99.90
41262;DHT22;29629;52.532;13.352;2023-07-24T06:57:46;23.90;99.90
41262;DHT22;29629;52.532;13.352;2023-07-24T07:00:13;23.70;99.90
41262;DHT22;29629;52.532;13.352;2023-07-24T07:02:40;23.60;99.90
41262;DHT22;29629;52.532;13.352;2023-07-24T07:05:08;23.80;99.90
41262;DHT22;29629;52.532;13.352;2023-07-24T07:07:35;23.80;99.90
41262;DHT22;29629;52.532;13.352;2023-07-24T07:10:03;23.90;99.90
41262;DHT22;29629;52.532;13.352;2023-07-24T07:12:31;23.80;99.90
41262;DHT22;29629;52.532;13.352;2023-07-24T07:14:58;23.70;99.90
41262;DHT22;29629;52.532;13.352;2023-07-24T07:17:25;23.70;99.90
41262;DHT22;29629;52.532;13.352;2023-07-24T07:19:52;23.90;99.90
41262;DHT22;29629;52.532;13.352;2023-07-24T07:22:19;24.00;99.90
41262;DHT22;29629;52.532;13.352;2023-07-24T07:27:18;24.20;99.90
41262;DHT22;29629;52.532;13.352;2023-07-24T07:29:45;24.50;99.90
41262;DHT22;29629;52.532;13.352;2023-07-24T07:32:12;24.60;99.90
41262;DHT22;29629;52.532;13.352;2023-07-24T07:34:39;25.00;99.90
41262;DHT22;29629;52.532;13.352;2023-07-24T07:37:14;24.90;99.90
41262;DHT22;29629;52.532;13.352;2023-07-24T07:39:52;24.10;99.90
41262;DHT22;29629;52.532;13.352;2023-07-24T07:42:20;24.50;99.90
41262;DHT22;29629;52.532;13.352;2023-07-24T07:44:47;24.60;99.90
41262;DHT22;29629;52.532;13.352;2023-07-24T07:47:14;24.80;99.90
41262;DHT22;29629;52.532;13.352;2023-07-24T07:49:41;24.60;99.90
41262;DHT22;29629;52.532;13.352;2023-07-24T07:52:08;24.80;99.90
41262;DHT22;29629;52.532;13.352;2023-07-24T07:54:35;25.10;99.90
41262;DHT22;29629;52.532;13.352;2023-07-24T07:57:03;24.50;99.90
41262;DHT22;29629;52.532;13.352;2023-07-24T07:59:31;24.80;99.90
41262;DHT22;29629;52.532;13.352;2023-07-24T08:01:59;24.70;99.90
41262;DHT22;29629;52.532;13.352;2023-07-24T08:04:26;24.50;99.90
41262;DHT22;29629;52.532;13.352;2023-07-24T08:06:53;25.10;99.90
41262;DHT22;29629;52.532;13.352;2023-07-24T08:09:20;25.30;99.90
41262;DHT22;29629;52.532;13.352;2023-07-24T08:11:49;25.50;99.90
41262;DHT22;29629;52.532;13.352;2023-07-24T08:14:16;25.50;99.90
41262;DHT22;29629;52.532;13.352;2023-07-24T08:16:47;25.20;99.90
41262;DHT22;29629;52.532;13.352;2023-07-24T08:19:14;25.50;99.90
41262;DHT22;29629;52.532;13.352;2023-07-24T08:21:41;25.90;99.90
41262;DHT22;29629;52.532;13.352;2023-07-24T08:24:08;26.20;99.90
41262;DHT22;29629;52.532;13.352;2023-07-24T08:26:35;26.30;99.90
41262;DHT22;29629;52.532;13.352;2023-07-24T08:29:02;26.20;99.90
41262;DHT22;29629;52.532;13.352;2023-07-24T08:31:29;26.20;99.90
41262;DHT22;29629;52.532;13.352;2023-07-24T08:33:57;26.40;99.90
41262;DHT22;29629;52.532;13.352;2023-07-24T08:36:24;26.00;99.90
41262;DHT22;29629;52.532;13.352;2023-07-24T08:38:51;26.00;99.90
41262;DHT22;29629;52.532;13.352;2023-07-24T08:41:18;25.80;99.90
41262;DHT22;29629;52.532;13.352;2023-07-24T08:43:45;25.90;99.90
41262;DHT22;29629;52.532;13.352;2023-07-24T08:46:12;25.80;99.90
41262;DHT22;29629;52.532;13.352;2023-07-24T08:48:40;25.80;99.90
41262;DHT22;29629;52.532;13.352;2023-07-24T08:51:10;25.70;99.90
41262;DHT22;29629;52.532;13.352;2023-07-24T08:53:38;25.40;99.90
41262;DHT22;29629;52.532;13.352;2023-07-24T08:56:07;25.40;99.90
41262;DHT22;29629;52.532;13.352;2023-07-24T08:58:35;25.80;99.90
41262;DHT22;29629;52.532;13.352;2023-07-24T09:01:03;25.40;99.90
41262;DHT22;29629;52.532;13.352;2023-07-24T09:03:31;25.70;99.90
41262;DHT22;29629;52.532;13.352;2023-07-24T09:05:58;25.90;99.90
41262;DHT22;29629;52.532;13.352;2023-07-24T09:08:32;26.10;99.90
41262;DHT22;29629;52.532;13.352;2023-07-24T09:10:59;26.20;99.90
41262;DHT22;29629;52.532;13.352;2023-07-24T09:13:27;26.30;99.90
41262;DHT22;29629;52.532;13.352;2023-07-24T09:15:54;26.00;99.90
41262;DHT22;29629;52.532;13.352;2023-07-24T09:18:21;25.90;99.90
41262;DHT22;29629;52.532;13.352;2023-07-24T09:20:49;25.80;99.90
41262;DHT22;29629;52.532;13.352;2023-07-24T09:23:25;26.10;99.90
41262;DHT22;29629;52.532;13.352;2023-07-24T09:25:54;26.40;99.90
41262;DHT22;29629;52.532;13.352;2023-07-24T09:28:21;26.00;99.90
41262;DHT22;29629;52.532;13.352;2023-07-24T09:30:52;26.50;99.90
41262;DHT22;29629;52.532;13.352;2023-07-24T09:33:19;26.70;99.90
41262;DHT22;29629;52.532;13.352;2023-07-24T09:35:57;27.10;99.90
41262;DHT22;29629;52.532;13.352;2023-07-24T09:38:24;27.40;99.90
41262;DHT22;29629;52.532;13.352;2023-07-24T09:40:55;28.30;99.90
41262;DHT22;29629;52.532;13.352;2023-07-24T09:43:23;27.70;99.90
41262;DHT22;29629;52.532;13.352;2023-07-24T09:45:52;27.90;99.90
41262;DHT22;29629;52.532;13.352;2023-07-24T09:48:20;28.10;99.90
41262;DHT22;29629;52.532;13.352;2023-07-24T09:50:52;28.40;99.90
41262;DHT22;29629;52.532;13.352;2023-07-24T09:53:22;27.20;99.90
41262;DHT22;29629;52.532;13.352;2023-07-24T09:55:56;26.90;99.90
41262;DHT22;29629;52.532;13.352;2023-07-24T09:58:25;27.10;99.90
41262;DHT22;29629;52.532;13.352;2023-07-24T10:00:52;29.80;99.90
41262;DHT22;29629;52.532;13.352;2023-07-24T10:03:20;30.10;99.90
41262;DHT22;29629;52.532;13.352;2023-07-24T10:05:48;30.30;99.90
41262;DHT22;29629;52.532;13.352;2023-07-24T10:08:16;29.90;99.90
41262;DHT22;29629;52.532;13.352;2023-07-24T10:10:43;30.40;99.90
41262;DHT22;29629;52.532;13.352;2023-07-24T10:13:13;30.20;99.90
41262;DHT22;29629;52.532;13.352;2023-07-24T10:15:41;30.30;99.90
41262;DHT22;29629;52.532;13.352;2023-07-24T10:18:08;30.20;99.90
41262;DHT22;29629;52.532;13.352;2023-07-24T10:20:37;31.30;99.90
41262;DHT22;29629;52.532;13.352;2023-07-24T10:23:06;28.70;99.90
41262;DHT22;29629;52.532;13.352;2023-07-24T10:25:34;30.10;99.90
41262;DHT22;29629;52.532;13.352;2023-07-24T10:28:03;30.20;99.90
41262;DHT22;29629;52.532;13.352;2023-07-24T10:30:34;30.60;99.90
41262;DHT22;29629;52.532;13.352;2023-07-24T10:33:06;31.00;99.90
41262;DHT22;29629;52.532;13.352;2023-07-24T10:35:41;31.90;99.90
41262;DHT22;29629;52.532;13.352;2023-07-24T10:38:09;30.60;99.90
41262;DHT22;29629;52.532;13.352;2023-07-24T10:40:36;31.20;99.90
41262;DHT22;29629;52.532;13.352;2023-07-24T10:43:07;30.70;99.90
41262;DHT22;29629;52.532;13.352;2023-07-24T10:45:45;31.00;99.90
41262;DHT22;29629;52.532;13.352;2023-07-24T10:48:12;29.70;99.90
41262;DHT22;29629;52.532;13.352;2023-07-24T10:50:41;29.70;99.90
41262;DHT22;29629;52.532;13.352;2023-07-24T10:53:08;30.20;99.90
41262;DHT22;29629;52.532;13.352;2023-07-24T10:55:36;29.20;99.90
41262;DHT22;29629;52.532;13.352;2023-07-24T10:58:07;28.70;99.90
41262;DHT22;29629;52.532;13.352;2023-07-24T11:00:36;28.20;99.90
41262;DHT22;29629;52.532;13.352;2023-07-24T11:03:04;29.00;99.90
41262;DHT22;29629;52.532;13.352;2023-07-24T11:05:32;30.40;99.90
41262;DHT22;29629;52.532;13.352;2023-07-24T11:07:59;29.90;99.90
41262;DHT22;29629;52.532;13.352;2023-07-24T11:10:26;29.90;99.90
41262;DHT22;29629;52.532;13.352;2023-07-24T11:12:56;29.60;99.90
41262;DHT22;29629;52.532;13.352;2023-07-24T11:15:26;29.50;99.90
41262;DHT22;29629;52.532;13.352;2023-07-24T11:17:53;29.30;99.90
41262;DHT22;29629;52.532;13.352;2023-07-24T11:20:24;28.60;99.90
41262;DHT22;29629;52.532;13.352;2023-07-24T11:22:52;27.80;99.90
41262;DHT22;29629;52.532;13.352;2023-07-24T11:25:19;27.40;99.90
41262;DHT22;29629;52.532;13.352;2023-07-24T11:27:46;27.60;99.90
41262;DHT22;29629;52.532;13.352;2023-07-24T11:30:19;27.80;99.90
41262;DHT22;29629;52.532;13.352;2023-07-24T11:32:47;27.60;99.90
41262;DHT22;29629;52.532;13.352;2023-07-24T11:35:15;28.20;99.90
41262;DHT22;29629;52.532;13.352;2023-07-24T11:37:43;28.30;99.90
41262;DHT22;29629;52.532;13.352;2023-07-24T11:40:11;28.60;99.90
41262;DHT22;29629;52.532;13.352;2023-07-24T11:42:42;28.10;99.90
41262;DHT22;29629;52.532;13.352;2023-07-24T11:45:10;28.40;99.90
41262;DHT22;29629;52.532;13.352;2023-07-24T11:47:45;28.00;99.90
41262;DHT22;29629;52.532;13.352;2023-07-24T11:50:12;27.70;99.90
41262;DHT22;29629;52.532;13.352;2023-07-24T11:52:40;27.90;99.90
41262;DHT22;29629;52.532;13.352;2023-07-24T11:55:11;28.00;99.90
41262;DHT22;29629;52.532;13.352;2023-07-24T11:57:38;28.70;99.90
41262;DHT22;29629;52.532;13.352;2023-07-24T12:00:16;28.30;99.90
41262;DHT22;29629;52.532;13.352;2023-07-24T12:02:44;27.80;99.90
41262;DHT22;29629;52.532;13.352;2023-07-24T12:05:11;27.40;99.90
41262;DHT22;29629;52.532;13.352;2023-07-24T12:07:38;27.30;99.90
41262;DHT22;29629;52.532;13.352;2023-07-24T12:10:06;27.20;99.90
41262;DHT22;29629;52.532;13.352;2023-07-24T12:12:39;27.20;99.90
41262;DHT22;29629;52.532;13.352;2023-07-24T12:15:07;27.10;99.90
41262;DHT22;29629;52.532;13.352;2023-07-24T12:17:34;27.00;99.90
41262;DHT22;29629;52.532;13.352;2023-07-24T12:20:02;26.50;99.90
41262;DHT22;29629;52.532;13.352;2023-07-24T12:22:30;24.70;99.90
41262;DHT22;29629;52.532;13.352;2023-07-24T12:24:57;24.30;99.90
41262;DHT22;29629;52.532;13.352;2023-07-24T12:27:24;24.20;99.90
41262;DHT22;29629;52.532;13.352;2023-07-24T12:29:52;24.30;99.90
41262;DHT22;29629;52.532;13.352;2023-07-24T12:32:19;24.30;99.90
41262;DHT22;29629;52.532;13.352;2023-07-24T12:34:49;24.30;99.90
41262;DHT22;29629;52.532;13.352;2023-07-24T12:37:17;24.20;99.90
41262;DHT22;29629;52.532;13.352;2023-07-24T12:39:44;24.20;99.90
41262;DHT22;29629;52.532;13.352;2023-07-24T12:42:11;24.30;99.90
41262;DHT22;29629;52.532;13.352;2023-07-24T12:44:38;24.10;99.90
41262;DHT22;29629;52.532;13.352;2023-07-24T12:47:06;25.10;99.90
41262;DHT22;29629;52.532;13.352;2023-07-24T12:49:33;26.60;99.90
41262;DHT22;29629;52.532;13.352;2023-07-24T12:52:00;27.20;99.90
41262;DHT22;29629;52.532;13.352;2023-07-24T12:54:27;26.30;99.90
41262;DHT22;29629;52.532;13.352;2023-07-24T12:56:54;26.20;99.90
41262;DHT22;29629;52.532;13.352;2023-07-24T12:59:21;26.00;99.90
41262;DHT22;29629;52.532;13.352;2023-07-24T13:01:48;25.60;99.90
41262;DHT22;29629;52.532;13.352;2023-07-24T13:04:16;25.40;99.90
41262;DHT22;29629;52.532;13.352;2023-07-24T13:06:43;25.20;99.90
41262;DHT22;29629;52.532;13.352;2023-07-24T13:09:10;24.80;99.90
41262;DHT22;29629;52.532;13.352;2023-07-24T13:11:37;24.70;99.90
41262;DHT22;29629;52.532;13.352;2023-07-24T13:14:04;24.80;99.90
41262;DHT22;29629;52.532;13.352;2023-07-24T13:16:32;24.90;99.90
41262;DHT22;29629;52.532;13.352;2023-07-24T13:18:58;25.10;99.90
41262;DHT22;29629;52.532;13.352;2023-07-24T13:21:27;25.10;99.90
41262;DHT22;29629;52.532;13.352;2023-07-24T13:23:54;25.30;99.90
41262;DHT22;29629;52.532;13.352;2023-07-24T13:26:21;25.70;99.90
41262;DHT22;29629;52.532;13.352;2023-07-24T13:28:48;25.90;99.90
41262;DHT22;29629;52.532;13.352;2023-07-24T13:31:17;25.80;99.90
41262;DHT22;29629;52.532;13.352;2023-07-24T13:33:44;25.80;99.90
41262;DHT22;29629;52.532;13.352;2023-07-24T13:36:11;25.80;99.90
41262;DHT22;29629;52.532;13.352;2023-07-24T13:38:40;25.80;99.90
41262;DHT22;29629;52.532;13.352;2023-07-24T13:41:07;26.10;99.90
41262;DHT22;29629;52.532;13.352;2023-07-24T13:43:35;26.30;99.90
41262;DHT22;29629;52.532;13.352;2023-07-24T13:46:01;26.60;99.90
41262;DHT22;29629;52.532;13.352;2023-07-24T13:48:30;27.00;99.90
41262;DHT22;29629;52.532;13.352;2023-07-24T13:50:57;27.00;99.90
41262;DHT22;29629;52.532;13.352;2023-07-24T13:53:24;27.00;99.90
41262;DHT22;29629;52.532;13.352;2023-07-24T13:55:53;27.10;99.90
41262;DHT22;29629;52.532;13.352;2023-07-24T13:58:20;27.10;99.90
41262;DHT22;29629;52.532;13.352;2023-07-24T14:00:47;26.90;99.90
41262;DHT22;29629;52.532;13.352;2023-07-24T14:03:13;26.70;99.90
41262;DHT22;29629;52.532;13.352;2023-07-24T14:05:40;26.60;99.90
41262;DHT22;29629;52.532;13.352;2023-07-24T14:08:07;26.40;99.90
41262;DHT22;29629;52.532;13.352;2023-07-24T14:10:34;26.30;99.90
41262;DHT22;29629;52.532;13.352;2023-07-24T14:13:02;26.20;99.90
41262;DHT22;29629;52.532;13.352;2023-07-24T14:15:30;26.10;99.90
41262;DHT22;29629;52.532;13.352;2023-07-24T14:17:57;25.90;99.90
41262;DHT22;29629;52.532;13.352;2023-07-24T14:20:23;26.00;99.90
41262;DHT22;29629;52.532;13.352;2023-07-24T14:22:50;25.90;99.90
41262;DHT22;29629;52.532;13.352;2023-07-24T14:25:17;26.00;99.90
41262;DHT22;29629;52.532;13.352;2023-07-24T14:27:44;26.00;99.90
41262;DHT22;29629;52.532;13.352;2023-07-24T14:30:13;26.00;99.90
41262;DHT22;29629;52.532;13.352;2023-07-24T14:32:39;25.90;99.90
41262;DHT22;29629;52.532;13.352;2023-07-24T14:35:07;25.80;99.90
41262;DHT22;29629;52.532;13.352;2023-07-24T14:37:34;25.80;99.90
41262;DHT22;29629;52.532;13.352;2023-07-24T14:40:01;25.70;99.90
41262;DHT22;29629;52.532;13.352;2023-07-24T14:42:28;25.60;99.90
41262;DHT22;29629;52.532;13.352;2023-07-24T14:44:55;25.60;99.90
41262;DHT22;29629;52.532;13.352;2023-07-24T14:47:28;25.40;99.90
41262;DHT22;29629;52.532;13.352;2023-07-24T14:49:57;25.30;99.90
41262;DHT22;29629;52.532;13.352;2023-07-24T14:52:24;25.20;99.90
41262;DHT22;29629;52.532;13.352;2023-07-24T14:54:51;25.10;99.90
41262;DHT22;29629;52.532;13.352;2023-07-24T14:57:18;25.10;99.90
41262;DHT22;29629;52.532;13.352;2023-07-24T14:59:45;25.10;99.90
41262;DHT22;29629;52.532;13.352;2023-07-24T15:02:11;25.10;99.90
41262;DHT22;29629;52.532;13.352;2023-07-24T15:04:40;25.10;99.90
41262;DHT22;29629;52.532;13.352;2023-07-24T15:07:07;25.10;99.90
41262;DHT22;29629;52.532;13.352;2023-07-24T15:09:33;25.20;99.90
41262;DHT22;29629;52.532;13.352;2023-07-24T15:12:00;25.20;99.90
41262;DHT22;29629;52.532;13.352;2023-07-24T15:14:27;25.20;99.90
41262;DHT22;29629;52.532;13.352;2023-07-24T15:16:54;25.30;99.90
41262;DHT22;29629;52.532;13.352;2023-07-24T15:19:21;25.30;99.90
41262;DHT22;29629;52.532;13.352;2023-07-24T15:21:49;25.40;99.90